Marfret Guyane — FNMV — position and weather

sailwx.info

Track history (hours):
 
Tides and Currents Weather Stations Pressure Air Temp Water Temp Dewpoint Dewpoint Depression Visibility Wind Speed Wind Dir Waves Ship Positions

Marfret Guyane

Last reported at 2016-Aug-31 04:31 UTC. Time now 2016-Aug-31 06:08 UTC.
Position N 49°29' E 000°10'.

Length 170 m; draft 7.2 m.

Type: Ship (hazmat cat A). MMSI: 226324000.

Date/timePositionNaut miles runAvg speedWind from/ knotsBaromVisibWave heightAir tempDewpointWater temp
2016-Aug-31 04:31N 49°29' E 000°10'0 0.0
2016-Aug-31 03:31N 49°29' E 000°10'0 0.0
2016-Aug-31 02:31N 49°29' E 000°10'0 0.0
2016-Aug-31 01:31N 49°29' E 000°10'0 0.0
2016-Aug-31 00:31N 49°29' E 000°10'0 0.0
2016-Aug-30 23:31N 49°29' E 000°10'0 0.0
2016-Aug-30 22:28N 49°29' E 000°10'0 0.0
2016-Aug-30 21:31N 49°29' E 000°10'0 0.0
2016-Aug-30 20:31N 49°29' E 000°10'0 0.0
2016-Aug-30 19:28N 49°29' E 000°10'0 0.0
2016-Aug-30 18:31N 49°29' E 000°10'0 0.0
2016-Aug-30 17:31N 49°29' E 000°10'0 0.0
2016-Aug-30 16:31N 49°29' E 000°10'0 0.0
2016-Aug-30 15:31N 49°29' E 000°10'0 0.0
2016-Aug-30 14:31N 49°29' E 000°10'0 0.0
2016-Aug-30 13:31N 49°29' E 000°10'2 1.9
2016-Aug-30 12:33N 49°29' E 000°07'0 0.0
2016-Aug-30 11:32N 49°29' E 000°07'0 0.0
2016-Aug-30 10:32N 49°29' E 000°07'0 0.0
2016-Aug-30 09:32N 49°29' E 000°07'0 0.0
2016-Aug-30 08:32N 49°29' E 000°07'0 0.0
2016-Aug-30 07:32N 49°29' E 000°07'0 0.0
2016-Aug-30 06:32N 49°29' E 000°07'0 0.0
2016-Aug-30 05:32N 49°29' E 000°07'0 0.0
2016-Aug-30 04:32N 49°29' E 000°07'0 0.0
2016-Aug-30 03:32N 49°29' E 000°07'0 0.0
2016-Aug-30 02:32N 49°29' E 000°07'0 0.0
2016-Aug-30 01:32N 49°29' E 000°07'0 0.0
2016-Aug-30 00:32N 49°29' E 000°07'0 0.0
2016-Aug-29 23:32N 49°29' E 000°07'0 0.0
2016-Aug-29 22:32N 49°29' E 000°07'0 0.0
2016-Aug-29 21:32N 49°29' E 000°07'0 0.0
2016-Aug-29 20:32N 49°29' E 000°07'0 0.0
2016-Aug-29 19:32N 49°29' E 000°07'0 0.0
2016-Aug-29 18:32N 49°29' E 000°07'0 0.0
2016-Aug-29 17:32N 49°29' E 000°07'0 0.0
2016-Aug-29 16:32N 49°29' E 000°07'0 0.0
2016-Aug-29 15:32N 49°29' E 000°07'0 0.0
2016-Aug-29 14:32N 49°29' E 000°07'0 0.0
2016-Aug-29 13:32N 49°29' E 000°07'0 0.0
2016-Aug-29 12:32N 49°29' E 000°07'0 0.0
2016-Aug-29 11:32N 49°29' E 000°07'0 0.0
2016-Aug-29 10:32N 49°29' E 000°07'0 0.0
2016-Aug-29 09:32N 49°29' E 000°07'0 0.0
2016-Aug-29 08:32N 49°29' E 000°07'0 0.0
2016-Aug-29 07:32N 49°29' E 000°07'0 0.0
2016-Aug-29 06:32N 49°29' E 000°07'0 0.0
2016-Aug-29 05:32N 49°29' E 000°07'0 0.0
2016-Aug-29 04:32N 49°29' E 000°07'0 0.0
2016-Aug-29 03:32N 49°29' E 000°07'0 0.0
2016-Aug-29 02:32N 49°29' E 000°07'0 0.0
2016-Aug-29 01:32N 49°29' E 000°07'0 0.0
2016-Aug-29 00:32N 49°29' E 000°07'0 0.2
2016-Aug-28 23:33N 49°29' E 000°07'9 8.8
2016-Aug-28 22:33N 49°33' W 000°05'1110.9
2016-Aug-28 21:34N 49°43' W 000°02'1918.7
2016-Aug-28 20:33N 49°59' E 000°15'7117.8
2016-Aug-28 16:33N 50°58' E 001°17'1919.5
2016-Aug-28 15:34N 51°11' E 001°40'1919.3
2016-Aug-28 14:34N 51°27' E 001°58'1818.3
2016-Aug-28 13:34N 51°41' E 002°17'3916.8
2016-Aug-28 11:14N 52°03' E 003°09'1217.3
2016-Aug-28 10:33N 52°03' E 003°28'1515.4
2016-Aug-28 09:33N 52°03' E 003°53'1010.3
2016-Aug-28 08:33N 51°58' E 004°08'10 9.8
2016-Aug-28 07:34N 51°54' E 004°22'2 2.5
2016-Aug-28 06:33N 51°53' E 004°26'0 0.0
2016-Aug-28 05:33N 51°53' E 004°26'0 0.0
2016-Aug-28 04:33N 51°53' E 004°26'0 0.0
2016-Aug-28 03:33N 51°53' E 004°26'0 0.0
2016-Aug-28 02:33N 51°53' E 004°26'0 0.0
2016-Aug-28 01:33N 51°53' E 004°26'0 0.0
2016-Aug-28 00:33N 51°53' E 004°26'0 0.0
2016-Aug-27 23:33N 51°53' E 004°26'0 0.0
2016-Aug-27 22:33N 51°53' E 004°26'0 0.0
2016-Aug-27 21:33N 51°53' E 004°26'0 0.0
2016-Aug-27 20:30N 51°53' E 004°26'0 0.0
2016-Aug-27 19:33N 51°53' E 004°26'0 0.0
2016-Aug-27 18:33N 51°53' E 004°26'0 0.0
2016-Aug-27 17:33N 51°53' E 004°26'0 0.0
2016-Aug-27 16:33N 51°53' E 004°26'0 0.0
2016-Aug-27 15:33N 51°53' E 004°26'1 0.7
2016-Aug-27 14:33N 51°54' E 004°25'8 8.3
2016-Aug-27 13:33N 51°56' E 004°12'1110.6
2016-Aug-27 12:33N 51°60' E 003°56'1010.1
2016-Aug-27 11:33N 51°58' E 003°40'1616.2
2016-Aug-27 10:33N 51°53' E 003°15'6 5.8
2016-Aug-27 09:33N 51°52' E 003°06'5 5.2
2016-Aug-27 08:33N 51°50' E 002°58'6 5.6
2016-Aug-27 07:33N 51°48' E 002°49'1010.3
2016-Aug-27 06:34N 51°43' E 002°35'20 9.8
2016-Aug-27 04:34N 51°38' E 002°05'1211.7
2016-Aug-27 03:33N 51°33' E 001°48'1211.5
2016-Aug-27 02:33N 51°28' E 001°31'1111.4
2016-Aug-27 01:33N 51°29' E 001°13'1413.7
2016-Aug-27 00:33N 51°29' E 000°51'1514.9
2016-Aug-26 23:33N 51°28' E 000°27'4 4.5
2016-Aug-26 22:34N 51°27' E 000°20'0 0.0
2016-Aug-26 21:34N 51°27' E 000°20'0 0.0
2016-Aug-26 20:34N 51°27' E 000°20'0 0.0
2016-Aug-26 19:33N 51°27' E 000°20'0 0.0
2016-Aug-26 18:34N 51°27' E 000°20'0 0.0
2016-Aug-26 17:34N 51°27' E 000°20'0 0.0
2016-Aug-26 16:34N 51°27' E 000°20'0 0.0
2016-Aug-26 15:34N 51°27' E 000°20'0 0.0
2016-Aug-26 14:34N 51°27' E 000°20'0 0.0
2016-Aug-26 13:34N 51°27' E 000°20'5 5.1
2016-Aug-26 12:34N 51°29' E 000°28'1313.2
2016-Aug-26 11:34N 51°29' E 000°49'1413.9
2016-Aug-26 10:33N 51°29' E 001°11'1211.6
2016-Aug-26 09:33N 51°25' E 001°29'1 0.8
2016-Aug-26 08:33N 51°25' E 001°28'0 0.0
2016-Aug-26 07:34N 51°25' E 001°28'0 0.0
2016-Aug-26 06:33N 51°25' E 001°28'0 0.1
2016-Aug-26 04:33N 51°25' E 001°27'0 0.0
2016-Aug-26 03:33N 51°25' E 001°27'0 0.2
2016-Aug-26 02:33N 51°25' E 001°28'9 9.2
2016-Aug-26 01:34N 51°18' E 001°37'1010.0
2016-Aug-26 00:33N 51°08' E 001°37'10 9.6
2016-Aug-25 23:33N 50°59' E 001°32'1312.8
2016-Aug-25 22:33N 50°47' E 001°24'1717.0
2016-Aug-25 21:33N 50°33' E 001°08'2317.2
2016-Aug-25 20:13N 50°23' E 000°35'1117.4
2016-Aug-25 19:33N 50°20' E 000°18'1717.4
2016-Aug-25 18:33N 50°16' W 000°08'1717.3
2016-Aug-25 17:33N 50°11' W 000°35'1817.8
2016-Aug-25 16:33N 50°06' W 001°01'1818.5
2016-Aug-25 15:33N 50°01' W 001°29'2019.7
2016-Aug-25 14:33N 49°55' W 001°58'2019.9
2016-Aug-25 13:33N 49°52' W 002°28'2019.7
2016-Aug-25 12:33N 49°47' W 002°58'1919.1
2016-Aug-25 11:33N 49°39' W 003°24'1919.0
2016-Aug-25 10:34N 49°29' W 003°49'2019.2
2016-Aug-25 09:31N 49°19' W 004°16'2019.0
2016-Aug-25 08:28N 49°09' W 004°42'1718.4
2016-Aug-25 07:33N 49°01' W 005°05'1818.4
2016-Aug-25 06:34N 48°51' W 005°28'3014.8
2016-Aug-25 04:34N 48°29' W 005°57'1212.5
2016-Aug-25 03:34N 48°19' W 006°09'1818.1
2016-Aug-25 02:34N 48°04' W 006°24'1817.7
2016-Aug-25 01:33N 47°50' W 006°41'1717.5
2016-Aug-25 00:33N 47°36' W 006°56'  
Track history (hours):
 
Tides and Currents Weather Stations Pressure Air Temp Water Temp Dewpoint Dewpoint Depression Visibility Wind Speed Wind Dir Waves Ship Positions

Marfret Guyane

Last reported at 2016-Aug-31 04:31 UTC. Time now 2016-Aug-31 06:08 UTC.
Position N 49°29' E 000°10'.

Length 170 m; draft 7.2 m.

Type: Ship (hazmat cat A). MMSI: 226324000.

Date/timePositionNaut miles runAvg speedWind from/ knotsBaromVisibWave heightAir tempDewpointWater temp
2016-Aug-31 04:31N 49°29' E 000°10'0 0.0
2016-Aug-31 03:31N 49°29' E 000°10'0 0.0
2016-Aug-31 02:31N 49°29' E 000°10'0 0.0
2016-Aug-31 01:31N 49°29' E 000°10'0 0.0
2016-Aug-31 00:31N 49°29' E 000°10'0 0.0
2016-Aug-30 23:31N 49°29' E 000°10'0 0.0
2016-Aug-30 22:28N 49°29' E 000°10'0 0.0
2016-Aug-30 21:31N 49°29' E 000°10'0 0.0
2016-Aug-30 20:31N 49°29' E 000°10'0 0.0
2016-Aug-30 19:28N 49°29' E 000°10'0 0.0
2016-Aug-30 18:31N 49°29' E 000°10'0 0.0
2016-Aug-30 17:31N 49°29' E 000°10'0 0.0
2016-Aug-30 16:31N 49°29' E 000°10'0 0.0
2016-Aug-30 15:31N 49°29' E 000°10'0 0.0
2016-Aug-30 14:31N 49°29' E 000°10'0 0.0
2016-Aug-30 13:31N 49°29' E 000°10'2 1.9
2016-Aug-30 12:33N 49°29' E 000°07'0 0.0
2016-Aug-30 11:32N 49°29' E 000°07'0 0.0
2016-Aug-30 10:32N 49°29' E 000°07'0 0.0
2016-Aug-30 09:32N 49°29' E 000°07'0 0.0
2016-Aug-30 08:32N 49°29' E 000°07'0 0.0
2016-Aug-30 07:32N 49°29' E 000°07'0 0.0
2016-Aug-30 06:32N 49°29' E 000°07'0 0.0
2016-Aug-30 05:32N 49°29' E 000°07'0 0.0
2016-Aug-30 04:32N 49°29' E 000°07'0 0.0
2016-Aug-30 03:32N 49°29' E 000°07'0 0.0
2016-Aug-30 02:32N 49°29' E 000°07'0 0.0
2016-Aug-30 01:32N 49°29' E 000°07'0 0.0
2016-Aug-30 00:32N 49°29' E 000°07'0 0.0
2016-Aug-29 23:32N 49°29' E 000°07'0 0.0
2016-Aug-29 22:32N 49°29' E 000°07'0 0.0
2016-Aug-29 21:32N 49°29' E 000°07'0 0.0
2016-Aug-29 20:32N 49°29' E 000°07'0 0.0
2016-Aug-29 19:32N 49°29' E 000°07'0 0.0
2016-Aug-29 18:32N 49°29' E 000°07'0 0.0
2016-Aug-29 17:32N 49°29' E 000°07'0 0.0
2016-Aug-29 16:32N 49°29' E 000°07'0 0.0
2016-Aug-29 15:32N 49°29' E 000°07'0 0.0
2016-Aug-29 14:32N 49°29' E 000°07'0 0.0
2016-Aug-29 13:32N 49°29' E 000°07'0 0.0
2016-Aug-29 12:32N 49°29' E 000°07'0 0.0
2016-Aug-29 11:32N 49°29' E 000°07'0 0.0
2016-Aug-29 10:32N 49°29' E 000°07'0 0.0
2016-Aug-29 09:32N 49°29' E 000°07'0 0.0
2016-Aug-29 08:32N 49°29' E 000°07'0 0.0
2016-Aug-29 07:32N 49°29' E 000°07'0 0.0
2016-Aug-29 06:32N 49°29' E 000°07'0 0.0
2016-Aug-29 05:32N 49°29' E 000°07'0 0.0
2016-Aug-29 04:32N 49°29' E 000°07'0 0.0
2016-Aug-29 03:32N 49°29' E 000°07'0 0.0
2016-Aug-29 02:32N 49°29' E 000°07'0 0.0
2016-Aug-29 01:32N 49°29' E 000°07'0 0.0
2016-Aug-29 00:32N 49°29' E 000°07'0 0.2
2016-Aug-28 23:33N 49°29' E 000°07'9 8.8
2016-Aug-28 22:33N 49°33' W 000°05'1110.9
2016-Aug-28 21:34N 49°43' W 000°02'1918.7
2016-Aug-28 20:33N 49°59' E 000°15'7117.8
2016-Aug-28 16:33N 50°58' E 001°17'1919.5
2016-Aug-28 15:34N 51°11' E 001°40'1919.3
2016-Aug-28 14:34N 51°27' E 001°58'1818.3
2016-Aug-28 13:34N 51°41' E 002°17'3916.8
2016-Aug-28 11:14N 52°03' E 003°09'1217.3
2016-Aug-28 10:33N 52°03' E 003°28'1515.4
2016-Aug-28 09:33N 52°03' E 003°53'1010.3
2016-Aug-28 08:33N 51°58' E 004°08'10 9.8
2016-Aug-28 07:34N 51°54' E 004°22'2 2.5
2016-Aug-28 06:33N 51°53' E 004°26'0 0.0
2016-Aug-28 05:33N 51°53' E 004°26'0 0.0
2016-Aug-28 04:33N 51°53' E 004°26'0 0.0
2016-Aug-28 03:33N 51°53' E 004°26'0 0.0
2016-Aug-28 02:33N 51°53' E 004°26'0 0.0
2016-Aug-28 01:33N 51°53' E 004°26'0 0.0
2016-Aug-28 00:33N 51°53' E 004°26'0 0.0
2016-Aug-27 23:33N 51°53' E 004°26'0 0.0
2016-Aug-27 22:33N 51°53' E 004°26'0 0.0
2016-Aug-27 21:33N 51°53' E 004°26'0 0.0
2016-Aug-27 20:30N 51°53' E 004°26'0 0.0
2016-Aug-27 19:33N 51°53' E 004°26'0 0.0
2016-Aug-27 18:33N 51°53' E 004°26'0 0.0
2016-Aug-27 17:33N 51°53' E 004°26'0 0.0
2016-Aug-27 16:33N 51°53' E 004°26'0 0.0
2016-Aug-27 15:33N 51°53' E 004°26'1 0.7
2016-Aug-27 14:33N 51°54' E 004°25'8 8.3
2016-Aug-27 13:33N 51°56' E 004°12'1110.6
2016-Aug-27 12:33N 51°60' E 003°56'1010.1
2016-Aug-27 11:33N 51°58' E 003°40'1616.2
2016-Aug-27 10:33N 51°53' E 003°15'6 5.8
2016-Aug-27 09:33N 51°52' E 003°06'5 5.2
2016-Aug-27 08:33N 51°50' E 002°58'6 5.6
2016-Aug-27 07:33N 51°48' E 002°49'1010.3
2016-Aug-27 06:34N 51°43' E 002°35'20 9.8
2016-Aug-27 04:34N 51°38' E 002°05'1211.7
2016-Aug-27 03:33N 51°33' E 001°48'1211.5
2016-Aug-27 02:33N 51°28' E 001°31'1111.4
2016-Aug-27 01:33N 51°29' E 001°13'1413.7
2016-Aug-27 00:33N 51°29' E 000°51'1514.9
2016-Aug-26 23:33N 51°28' E 000°27'4 4.5
2016-Aug-26 22:34N 51°27' E 000°20'0 0.0
2016-Aug-26 21:34N 51°27' E 000°20'0 0.0
2016-Aug-26 20:34N 51°27' E 000°20'0 0.0
2016-Aug-26 19:33N 51°27' E 000°20'0 0.0
2016-Aug-26 18:34N 51°27' E 000°20'0 0.0
2016-Aug-26 17:34N 51°27' E 000°20'0 0.0
2016-Aug-26 16:34N 51°27' E 000°20'0 0.0
2016-Aug-26 15:34N 51°27' E 000°20'0 0.0
2016-Aug-26 14:34N 51°27' E 000°20'0 0.0
2016-Aug-26 13:34N 51°27' E 000°20'5 5.1
2016-Aug-26 12:34N 51°29' E 000°28'1313.2
2016-Aug-26 11:34N 51°29' E 000°49'1413.9
2016-Aug-26 10:33N 51°29' E 001°11'1211.6
2016-Aug-26 09:33N 51°25' E 001°29'1 0.8
2016-Aug-26 08:33N 51°25' E 001°28'0 0.0
2016-Aug-26 07:34N 51°25' E 001°28'0 0.0
2016-Aug-26 06:33N 51°25' E 001°28'0 0.1
2016-Aug-26 04:33N 51°25' E 001°27'0 0.0
2016-Aug-26 03:33N 51°25' E 001°27'0 0.2
2016-Aug-26 02:33N 51°25' E 001°28'9 9.2
2016-Aug-26 01:34N 51°18' E 001°37'1010.0
2016-Aug-26 00:33N 51°08' E 001°37'10 9.6
2016-Aug-25 23:33N 50°59' E 001°32'1312.8
2016-Aug-25 22:33N 50°47' E 001°24'1717.0
2016-Aug-25 21:33N 50°33' E 001°08'2317.2
2016-Aug-25 20:13N 50°23' E 000°35'1117.4
2016-Aug-25 19:33N 50°20' E 000°18'1717.4
2016-Aug-25 18:33N 50°16' W 000°08'1717.3
2016-Aug-25 17:33N 50°11' W 000°35'1817.8
2016-Aug-25 16:33N 50°06' W 001°01'1818.5
2016-Aug-25 15:33N 50°01' W 001°29'2019.7
2016-Aug-25 14:33N 49°55' W 001°58'2019.9
2016-Aug-25 13:33N 49°52' W 002°28'2019.7
2016-Aug-25 12:33N 49°47' W 002°58'1919.1
2016-Aug-25 11:33N 49°39' W 003°24'1919.0
2016-Aug-25 10:34N 49°29' W 003°49'2019.2
2016-Aug-25 09:31N 49°19' W 004°16'2019.0
2016-Aug-25 08:28N 49°09' W 004°42'1718.4
2016-Aug-25 07:33N 49°01' W 005°05'1818.4
2016-Aug-25 06:34N 48°51' W 005°28'3014.8
2016-Aug-25 04:34N 48°29' W 005°57'1212.5
2016-Aug-25 03:34N 48°19' W 006°09'1818.1
2016-Aug-25 02:34N 48°04' W 006°24'1817.7
2016-Aug-25 01:33N 47°50' W 006°41'1717.5
2016-Aug-25 00:33N 47°36' W 006°56'  

Dump ship's entire track history